Terminal Aerodrome Forecast
Issued by NWS

Home | Current Version | Previous Version | Text Only | Print | Product List | Glossary On
Versions: 1 2 3 4 5 6 7 8 9 10 11 12 13 14 15 16 17 18 19 20 21 22 23 24 25 26 27 28 29 30 31 32
000
FTUS44 KBMX 261137
TAFTCL
TAF
KTCL 261137Z 2612/2712 30005KT P6SM SCT012
      TEMPO 2612/2615 BKN012
     FM261500 34015G23KT P6SM SKC
     FM270000 34010KT P6SM SKC
     FM270200 00000KT P6SM SKC=

USA.gov is the U.S. government's official web portal to all federal, state and local government web resources and services.